createdAt,value
2022-09-24T00:02:55.521Z,23.3
2022-09-24T00:08:14.052Z,23.3
2022-09-24T00:13:32.669Z,23.3
2022-09-24T00:18:50.882Z,23.3
2022-09-24T00:24:08.948Z,23.3
2022-09-24T00:29:27.685Z,23.3
2022-09-24T00:34:46.199Z,23.3
2022-09-24T00:40:04.393Z,23.3
2022-09-24T00:45:26.428Z,23.3
2022-09-24T00:50:44.927Z,23.3
2022-09-24T00:56:03.154Z,23.2
2022-09-24T01:01:21.765Z,23.3
2022-09-24T01:06:40.087Z,23.2
2022-09-24T01:11:58.820Z,23.2
2022-09-24T01:17:17.584Z,23.2
2022-09-24T01:22:36.086Z,23.2
2022-09-24T01:27:54.265Z,23.2
2022-09-24T01:33:12.738Z,23.2
2022-09-24T01:38:31.254Z,23.2
2022-09-24T01:43:49.719Z,23.2
2022-09-24T01:49:08.475Z,23.2
2022-09-24T01:54:27.260Z,23.2
2022-09-24T01:59:46.002Z,23.2
2022-09-24T02:05:04.503Z,23.2
2022-09-24T02:10:23.287Z,23.2
2022-09-24T02:15:41.365Z,23.2
2022-09-24T02:20:59.437Z,23.2
2022-09-24T02:26:17.682Z,23.2
2022-09-24T02:31:35.836Z,23.2
2022-09-24T02:36:54.282Z,23.1
2022-09-24T02:42:13.068Z,23.1
2022-09-24T02:47:30.974Z,23.1
2022-09-24T02:52:49.181Z,23.1
2022-09-24T02:58:07.406Z,23.1
2022-09-24T03:03:25.980Z,23.1
2022-09-24T03:08:44.739Z,23.1
2022-09-24T03:14:03.241Z,23.1
2022-09-24T03:19:21.424Z,23.1
2022-09-24T03:24:39.906Z,23.1
2022-09-24T03:29:58.137Z,23.1
2022-09-24T03:35:16.877Z,23.1
2022-09-24T03:40:35.585Z,23.1
2022-09-24T03:45:54.259Z,23.1
2022-09-24T03:51:12.716Z,23.1
2022-09-24T03:56:31.197Z,23.1
2022-09-24T04:01:49.583Z,23.1
2022-09-24T04:07:08.325Z,23.1
2022-09-24T04:12:26.799Z,23.1
2022-09-24T04:17:45.344Z,23
2022-09-24T04:23:03.786Z,23
2022-09-24T04:28:22.270Z,23
2022-09-24T04:33:41.058Z,23
2022-09-24T04:38:59.791Z,23
2022-09-24T04:44:18.291Z,23
2022-09-24T04:49:37.090Z,23
2022-09-24T04:54:55.646Z,23
2022-09-24T05:00:13.845Z,23.1
2022-09-24T05:05:32.351Z,23.1
2022-09-24T05:10:50.814Z,23.1
2022-09-24T05:16:09.618Z,23.1
2022-09-24T05:21:27.620Z,23.1
2022-09-24T05:26:46.085Z,23.1
2022-09-24T05:32:04.561Z,23.1
2022-09-24T05:37:22.996Z,23.1
2022-09-24T05:42:41.186Z,23.1
2022-09-24T05:48:00.080Z,23.2
2022-09-24T05:53:18.739Z,23.2
2022-09-24T05:58:37.187Z,23.2
2022-09-24T06:03:55.694Z,23.3
2022-09-24T06:09:13.909Z,23.3
2022-09-24T06:14:32.234Z,23.4
2022-09-24T06:19:50.427Z,23.4
2022-09-24T06:25:09.219Z,23.4
2022-09-24T06:30:27.679Z,23.4
2022-09-24T06:35:46.169Z,23.5
2022-09-24T06:41:04.916Z,23.5
2022-09-24T06:46:23.437Z,23.5
2022-09-24T06:51:42.075Z,23.5
2022-09-24T06:57:00.322Z,23.5
2022-09-24T07:02:18.362Z,23.5
2022-09-24T07:07:36.850Z,23.5
2022-09-24T07:12:55.461Z,23.5
2022-09-24T07:18:13.547Z,23.6
2022-09-24T07:23:32.025Z,23.6
2022-09-24T07:28:50.619Z,23.6
2022-09-24T07:34:09.464Z,23.6
2022-09-24T07:39:27.406Z,23.6
2022-09-24T07:44:45.657Z,23.7
2022-09-24T07:50:04.394Z,23.7
2022-09-24T07:55:22.879Z,23.7
2022-09-24T08:00:41.389Z,23.7
2022-09-24T08:05:59.885Z,23.7
2022-09-24T08:11:18.071Z,23.7
2022-09-24T08:16:36.583Z,23.8
2022-09-24T08:21:54.755Z,23.8
2022-09-24T08:27:17.732Z,23.8
2022-09-24T08:32:36.023Z,23.8
2022-09-24T08:37:54.482Z,23.9
2022-09-24T08:43:12.408Z,23.9
2022-09-24T08:48:30.846Z,23.9
2022-09-24T08:53:49.052Z,23.9
2022-09-24T08:59:06.975Z,23.9
2022-09-24T09:04:25.773Z,24
2022-09-24T09:09:44.242Z,24
2022-09-24T09:15:03.006Z,24
2022-09-24T09:20:21.836Z,24
2022-09-24T09:25:40.576Z,24
2022-09-24T09:30:59.255Z,24
2022-09-24T09:36:17.487Z,24
2022-09-24T09:41:35.753Z,24
2022-09-24T09:46:53.801Z,24.1
2022-09-24T09:52:12.366Z,24.1
2022-09-24T09:57:30.699Z,24.1
2022-09-24T10:02:49.661Z,24.1
2022-09-24T10:08:08.450Z,24.1
2022-09-24T10:13:26.984Z,24.1
2022-09-24T10:18:44.904Z,24.1
2022-09-24T10:24:03.504Z,24.1
2022-09-24T10:29:21.756Z,24.1
2022-09-24T10:34:40.248Z,24.1
2022-09-24T10:39:59.142Z,24.2
2022-09-24T10:45:17.473Z,24.2
2022-09-24T10:50:36.252Z,24.2
2022-09-24T10:55:54.876Z,24.2
2022-09-24T11:01:13.870Z,24.2
2022-09-24T11:06:32.638Z,24.2
2022-09-24T11:11:50.854Z,24.2
2022-09-24T11:17:09.499Z,24.2
2022-09-24T11:22:28.277Z,24.1
2022-09-24T11:27:46.785Z,24.1
2022-09-24T11:33:04.974Z,24.2
2022-09-24T11:38:23.461Z,24.1
2022-09-24T11:43:41.781Z,24.1
2022-09-24T11:49:00.247Z,24.1
2022-09-24T11:54:18.460Z,24.1
2022-09-24T11:59:37.249Z,24.1
2022-09-24T12:04:55.700Z,24.1
2022-09-24T12:10:14.454Z,24.1
2022-09-24T12:15:32.408Z,24.1
2022-09-24T12:20:50.864Z,24
2022-09-24T12:26:09.637Z,24
2022-09-24T12:31:28.562Z,24
2022-09-24T12:36:47.401Z,24
2022-09-24T12:42:06.166Z,24
2022-09-24T12:47:24.689Z,24
2022-09-24T12:52:43.232Z,24
2022-09-24T12:58:01.999Z,24
2022-09-24T13:03:20.503Z,24
2022-09-24T13:08:38.964Z,24
2022-09-24T13:13:57.461Z,24
2022-09-24T13:19:16.127Z,24
2022-09-24T13:24:34.711Z,23.9
2022-09-24T13:29:53.479Z,23.9
2022-09-24T13:35:12.408Z,23.9
2022-09-24T13:40:32.899Z,23.9
2022-09-24T13:45:51.557Z,23.9
2022-09-24T13:51:10.063Z,23.9
2022-09-24T13:56:28.329Z,23.9
2022-09-24T14:01:47.111Z,23.9
2022-09-24T14:07:05.673Z,23.8
2022-09-24T14:12:24.035Z,23.8
2022-09-24T14:17:42.246Z,23.8
2022-09-24T14:23:00.582Z,23.8
2022-09-24T14:28:18.765Z,23.8
2022-09-24T14:33:36.683Z,23.8
2022-09-24T14:38:55.195Z,23.8
2022-09-24T14:44:13.662Z,23.8
2022-09-24T14:49:32.148Z,23.8
2022-09-24T14:54:50.661Z,23.8
2022-09-24T15:00:09.115Z,23.8
2022-09-24T15:05:27.942Z,23.8
2022-09-24T15:10:46.119Z,23.8
2022-09-24T15:16:04.773Z,23.8
2022-09-24T15:21:23.166Z,23.8
2022-09-24T15:26:41.685Z,23.8
2022-09-24T15:32:00.161Z,23.7
2022-09-24T15:37:18.364Z,23.7
2022-09-24T15:42:37.157Z,23.7
2022-09-24T15:47:55.609Z,23.7
2022-09-24T15:53:13.815Z,23.7
2022-09-24T15:58:32.341Z,23.7
2022-09-24T16:03:50.246Z,23.7
2022-09-24T16:09:08.864Z,23.7
2022-09-24T16:14:27.182Z,23.7
2022-09-24T16:19:45.383Z,23.7
2022-09-24T16:25:04.126Z,23.7
2022-09-24T16:30:22.659Z,23.7
2022-09-24T16:35:41.125Z,23.6
2022-09-24T16:40:59.934Z,23.6
2022-09-24T16:46:21.332Z,23.6
2022-09-24T16:51:39.956Z,23.6
2022-09-24T16:56:58.714Z,23.6
2022-09-24T17:02:17.703Z,23.6
2022-09-24T17:07:36.076Z,23.6
2022-09-24T17:12:54.559Z,23.6
2022-09-24T17:18:13.064Z,23.6
2022-09-24T17:23:31.242Z,23.6
2022-09-24T17:28:49.160Z,23.5
2022-09-24T17:34:07.205Z,23.5
2022-09-24T17:39:25.121Z,23.5
2022-09-24T17:44:43.595Z,23.5
2022-09-24T17:50:02.213Z,23.5
2022-09-24T17:55:20.386Z,23.5
2022-09-24T18:00:38.590Z,23.5
2022-09-24T18:05:56.810Z,23.5
2022-09-24T18:11:14.986Z,23.5
2022-09-24T18:16:33.489Z,23.5
2022-09-24T18:21:51.801Z,23.5
2022-09-24T18:27:10.424Z,23.5
2022-09-24T18:32:28.896Z,23.5
2022-09-24T18:37:47.499Z,23.5
2022-09-24T18:43:06.059Z,23.5
2022-09-24T18:48:24.823Z,23.4
2022-09-24T18:53:42.815Z,23.4
2022-09-24T18:59:02.057Z,23.4
2022-09-24T19:04:32.803Z,23.4
2022-09-24T19:09:51.586Z,23.4
2022-09-24T19:15:10.394Z,23.4
2022-09-24T19:20:28.875Z,23.4
2022-09-24T19:25:47.110Z,23.4
2022-09-24T19:31:05.241Z,23.4
2022-09-24T19:36:23.701Z,23.4
2022-09-24T19:41:42.496Z,23.4
2022-09-24T19:47:01.219Z,23.4
2022-09-24T19:52:19.710Z,23.4
2022-09-24T19:57:38.222Z,23.4
2022-09-24T20:02:56.563Z,23.3
2022-09-24T20:08:14.607Z,23.3
2022-09-24T20:13:33.110Z,23.3
2022-09-24T20:18:51.032Z,23.3
2022-09-24T20:24:09.630Z,23.3
2022-09-24T20:29:27.794Z,23.3
2022-09-24T20:34:46.248Z,23.3
2022-09-24T20:40:04.739Z,23.3
2022-09-24T20:45:23.262Z,23.3
2022-09-24T20:50:41.889Z,23.3
2022-09-24T20:56:00.080Z,23.3
2022-09-24T21:01:18.817Z,23.3
2022-09-24T21:06:37.082Z,23.3
2022-09-24T21:11:55.566Z,23.3
2022-09-24T21:17:14.079Z,23.3
2022-09-24T21:22:32.539Z,23.2
2022-09-24T21:27:50.741Z,23.2
2022-09-24T21:33:08.959Z,23.2
2022-09-24T21:38:27.418Z,23.2
2022-09-24T21:43:45.624Z,23.2
2022-09-24T21:49:04.222Z,23.2
2022-09-24T21:54:22.691Z,23.2
2022-09-24T21:59:41.447Z,23.2
2022-09-24T22:04:59.853Z,23.2
2022-09-24T22:10:18.030Z,23.2
2022-09-24T22:15:36.505Z,23.2
2022-09-24T22:20:55.020Z,23.2
2022-09-24T22:26:13.767Z,23.2
2022-09-24T22:31:32.241Z,23.2
2022-09-24T22:36:50.500Z,23.2
2022-09-24T22:42:08.948Z,23.2
2022-09-24T22:47:27.709Z,23.2
2022-09-24T22:52:46.495Z,23.1
2022-09-24T22:58:04.961Z,23.1
2022-09-24T23:03:23.442Z,23.1
2022-09-24T23:08:42.164Z,23.2
2022-09-24T23:14:00.656Z,23.1
2022-09-24T23:19:19.414Z,23.1
2022-09-24T23:24:37.936Z,23.1
2022-09-24T23:29:56.677Z,23.1
2022-09-24T23:35:15.164Z,23.1
2022-09-24T23:40:33.797Z,23.1
2022-09-24T23:45:51.841Z,23.1
2022-09-24T23:51:10.747Z,23.1
2022-09-24T23:56:29.255Z,23.1
